Time;durP1;ratioP1;P1;durP2;ratioP2;P2;SDS_P1;SDS_P2;PMS_P1;PMS_P2;Temp;Humidity;BMP_temperature;BMP_pressure;BME280_temperature;BME280_humidity;BME280_pressure;Samples;Min_cycle;Max_cycle;Signal;HPM_P1;HPM_P2
2021/09/17 00:01:16;;;;;;;4.18;2.15;;;;;;;18.18;78.56;92676.53;2058428;69;20160;-79
2021/09/17 00:03:42;;;;;;;3.63;2.10;;;;;;;18.18;78.91;92679.38;2058375;69;20150;-81
2021/09/17 00:06:08;;;;;;;3.35;2.20;;;;;;;18.17;79.00;92678.66;2058394;69;20152;-78
2021/09/17 00:08:34;;;;;;;3.80;2.42;;;;;;;18.17;77.83;92678.66;2058267;69;20331;-79
2021/09/17 00:10:59;;;;;;;3.95;2.80;;;;;;;18.21;77.55;92669.53;2058301;69;20228;-79
2021/09/17 00:13:26;;;;;;;2.97;2.50;;;;;;;18.14;78.74;92676.41;2058108;69;20197;-79
2021/09/17 00:15:51;;;;;;;4.32;3.08;;;;;;;17.78;81.34;92671.72;2058659;69;20142;-80
2021/09/17 00:18:17;;;;;;;4.50;2.80;;;;;;;17.66;82.83;92674.09;2057573;69;20153;-80
2021/09/17 00:20:43;;;;;;;3.70;2.33;;;;;;;17.76;81.65;92668.06;2058135;69;20262;-80
2021/09/17 00:23:08;;;;;;;4.00;2.30;;;;;;;18.13;76.38;92669.25;2057638;69;20177;-79
2021/09/17 00:25:34;;;;;;;3.90;2.15;;;;;;;18.11;78.10;92666.34;2057985;69;20259;-79
2021/09/17 00:28:00;;;;;;;4.47;2.03;;;;;;;17.94;78.46;92659.38;2058342;69;20233;-78
2021/09/17 00:30:28;;;;;;;2.00;1.80;;;;;;;18.01;77.26;92658.94;2058027;69;20162;-80
2021/09/17 00:32:59;;;;;;;3.20;2.00;;;;;;;17.57;82.05;92658.13;2057626;69;20181;-79
2021/09/17 00:35:26;;;;;;;3.40;2.13;;;;;;;17.86;80.16;92659.13;2058372;69;20185;-79
2021/09/17 00:37:53;;;;;;;2.45;1.92;;;;;;;17.91;79.08;92657.84;2058224;69;20146;-80
2021/09/17 00:40:18;;;;;;;2.58;1.80;;;;;;;18.02;78.15;92648.28;2058088;69;20149;-79
2021/09/17 00:42:45;;;;;;;3.50;1.85;;;;;;;18.09;78.05;92649.19;2057817;69;20235;-79
2021/09/17 00:45:12;;;;;;;2.33;1.92;;;;;;;17.85;79.90;92652.69;2058414;69;20247;-80
2021/09/17 00:47:39;;;;;;;3.58;2.60;;;;;;;17.22;84.40;92647.66;2058185;69;20152;-77
2021/09/17 00:50:07;;;;;;;4.75;3.15;;;;;;;17.28;83.83;92650.75;2058382;69;20200;-79
2021/09/17 00:52:33;;;;;;;5.80;3.47;;;;;;;17.12;84.50;92650.88;2058287;69;20196;-80
2021/09/17 00:54:58;;;;;;;5.78;3.38;;;;;;;17.24;84.47;92645.63;2058532;69;20153;-80
2021/09/17 00:57:24;;;;;;;3.65;3.17;;;;;;;17.22;84.30;92641.97;2058389;69;20205;-80
2021/09/17 00:59:50;;;;;;;4.97;3.22;;;;;;;17.44;82.95;92639.19;2057678;69;20292;-79
2021/09/17 01:02:16;;;;;;;5.28;3.08;;;;;;;17.26;83.12;92633.59;2057781;69;20612;-80
2021/09/17 01:04:42;;;;;;;4.80;2.42;;;;;;;17.45;82.05;92632.81;2058324;69;20576;-80
2021/09/17 01:07:08;;;;;;;3.45;2.00;;;;;;;17.58;81.24;92628.28;2057873;69;20502;-80
2021/09/17 01:09:34;;;;;;;2.00;1.70;;;;;;;17.69;80.58;92623.69;2058254;69;20142;-78
2021/09/17 01:12:03;;;;;;;3.00;1.77;;;;;;;17.78;78.88;92619.72;2057644;69;20157;-79
2021/09/17 01:14:34;;;;;;;2.38;1.90;;;;;;;17.50;80.53;92628.00;2057648;69;20200;-80
2021/09/17 01:17:00;;;;;;;3.13;1.70;;;;;;;17.31;82.39;92617.38;2057557;69;20189;-79
2021/09/17 01:19:26;;;;;;;3.25;1.60;;;;;;;17.08;83.91;92627.97;2058142;69;20153;-81
2021/09/17 01:22:00;;;;;;;1.63;1.42;;;;;;;17.27;82.30;92626.50;2058125;69;20153;-80
2021/09/17 01:24:27;;;;;;;2.17;1.40;;;;;;;17.25;81.85;92626.44;2057885;69;20259;-80
2021/09/17 01:26:54;;;;;;;1.58;1.35;;;;;;;17.47;81.06;92627.22;2058387;69;20162;-80
2021/09/17 01:29:20;;;;;;;1.77;1.60;;;;;;;17.10;83.06;92628.06;2058099;69;20145;-81
2021/09/17 01:31:47;;;;;;;2.28;1.48;;;;;;;17.22;81.26;92628.47;2057641;69;20162;-81
2021/09/17 01:34:17;;;;;;;2.10;1.40;;;;;;;17.02;82.58;92622.81;2057693;69;20156;-80
2021/09/17 01:36:44;;;;;;;1.40;1.20;;;;;;;17.19;82.21;92631.94;2057708;69;20189;-80
2021/09/17 01:39:10;;;;;;;2.17;1.25;;;;;;;17.21;81.83;92629.88;2057518;69;20220;-79
2021/09/17 01:41:36;;;;;;;1.33;1.08;;;;;;;16.87;83.25;92632.22;2058169;69;20174;-80
2021/09/17 01:44:01;;;;;;;2.15;1.42;;;;;;;16.86;83.86;92625.09;2057943;69;20245;-80
2021/09/17 01:46:27;;;;;;;1.27;1.10;;;;;;;17.27;81.14;92626.50;2058241;69;20153;-79
2021/09/17 01:48:53;;;;;;;2.10;1.00;;;;;;;16.87;83.20;92623.69;2057850;69;20158;-80
2021/09/17 01:51:19;;;;;;;3.17;1.25;;;;;;;16.79;83.61;92626.25;2058265;69;20161;-79
2021/09/17 01:53:45;;;;;;;2.63;1.15;;;;;;;16.72;83.78;92621.69;2057500;69;20254;-80
2021/09/17 01:56:11;;;;;;;2.53;1.10;;;;;;;16.57;85.23;92623.25;2058073;69;20157;-80
2021/09/17 01:58:36;;;;;;;1.15;0.85;;;;;;;17.02;82.47;92619.25;2058025;69;20152;-80
2021/09/17 02:01:04;;;;;;;1.40;1.30;;;;;;;16.43;85.49;92617.78;2058179;69;20179;-78
2021/09/17 02:03:30;;;;;;;1.17;1.08;;;;;;;17.06;81.08;92618.66;2057614;69;20623;-81
2021/09/17 02:05:55;;;;;;;1.23;1.02;;;;;;;16.98;82.08;92619.09;2058203;69;20160;-80
2021/09/17 02:08:21;;;;;;;1.73;1.00;;;;;;;16.80;82.58;92618.44;2057715;69;20802;-80
2021/09/17 02:10:48;;;;;;;1.52;1.10;;;;;;;16.91;83.13;92620.28;2058239;69;20153;-83
2021/09/17 02:13:20;;;;;;;2.00;1.20;;;;;;;16.80;83.38;92607.06;2057925;69;20161;-81
2021/09/17 02:15:50;;;;;;;1.67;0.80;;;;;;;17.11;81.41;92617.41;2058152;69;20249;-81
2021/09/17 02:18:17;;;;;;;2.05;0.70;;;;;;;16.93;81.50;92623.19;2057523;69;20162;-81
2021/09/17 02:20:43;;;;;;;2.78;0.90;;;;;;;17.01;81.23;92615.66;2058094;69;20326;-82
2021/09/17 02:23:09;;;;;;;1.08;0.98;;;;;;;17.09;81.50;92620.94;2058128;69;20568;-82
2021/09/17 02:25:36;;;;;;;1.20;1.10;;;;;;;17.19;79.07;92617.72;2058013;69;20165;-80
2021/09/17 02:28:02;;;;;;;1.77;1.10;;;;;;;17.13;81.23;92615.34;2058112;69;20192;-81
2021/09/17 02:30:31;;;;;;;0.98;0.93;;;;;;;17.24;79.37;92622.16;2058073;69;20145;-84
2021/09/17 02:32:58;;;;;;;4.05;1.00;;;;;;;17.00;81.26;92619.19;2057421;69;20145;-81
2021/09/17 02:35:24;;;;;;;1.55;1.00;;;;;;;16.83;82.10;92620.69;2058125;69;20606;-81
2021/09/17 02:37:49;;;;;;;2.58;1.00;;;;;;;16.73;83.04;92617.50;2058048;69;20170;-79
2021/09/17 02:40:16;;;;;;;6.93;1.30;;;;;;;16.88;81.45;92610.94;2058051;69;20192;-78
2021/09/17 02:42:42;;;;;;;1.17;1.08;;;;;;;16.61;82.78;92606.38;2058182;69;20224;-79
2021/09/17 02:45:10;;;;;;;2.65;1.10;;;;;;;16.59;83.45;92608.41;2058208;69;20200;-80
2021/09/17 02:47:36;;;;;;;1.73;0.93;;;;;;;16.65;82.62;92606.53;2058085;69;20193;-79
2021/09/17 02:50:03;;;;;;;1.17;1.00;;;;;;;16.38;84.60;92601.97;2058051;69;20165;-81
2021/09/17 02:52:28;;;;;;;1.30;1.00;;;;;;;16.13;85.62;92603.16;2058024;69;20150;-80
2021/09/17 02:54:54;;;;;;;3.65;0.98;;;;;;;16.50;83.52;92604.53;2057591;69;20165;-80
2021/09/17 02:57:19;;;;;;;2.30;1.00;;;;;;;16.41;83.84;92608.47;2058013;69;20142;-80
2021/09/17 02:59:45;;;;;;;1.73;1.00;;;;;;;16.23;85.60;92602.81;2057972;69;20216;-81
2021/09/17 03:02:11;;;;;;;2.05;1.10;;;;;;;16.71;83.14;92597.47;2057909;69;20150;-81
2021/09/17 03:04:37;;;;;;;0.80;0.80;;;;;;;16.84;81.47;92607.22;2057389;69;20161;-82
2021/09/17 03:07:06;;;;;;;2.67;0.70;;;;;;;16.94;80.81;92599.78;2057660;69;20536;-83
2021/09/17 03:09:33;;;;;;;1.67;0.80;;;;;;;17.08;79.16;92599.53;2057848;69;20150;-81
2021/09/17 03:11:59;;;;;;;1.88;1.00;;;;;;;17.05;79.79;92597.31;2058280;69;20137;-81
2021/09/17 03:14:25;;;;;;;3.80;1.70;;;;;;;16.87;80.56;92595.25;2057377;69;20641;-78
2021/09/17 03:16:50;;;;;;;4.13;1.50;;;;;;;17.04;80.58;92602.25;2057464;69;20151;-80
2021/09/17 03:19:17;;;;;;;2.20;1.20;;;;;;;16.56;81.79;92595.50;2057853;69;20150;-80
2021/09/17 03:21:46;;;;;;;1.60;0.95;;;;;;;16.35;84.80;92597.56;2054476;69;20219;-81
2021/09/17 03:24:12;;;;;;;1.77;1.08;;;;;;;16.74;81.83;92599.06;2057442;69;20250;-80
2021/09/17 03:26:39;;;;;;;2.08;1.13;;;;;;;16.70;81.82;92591.06;2058071;69;20184;-81
2021/09/17 03:29:04;;;;;;;1.38;1.10;;;;;;;16.44;82.58;92592.94;2058340;69;20157;-81
2021/09/17 03:31:30;;;;;;;1.40;0.90;;;;;;;16.86;80.32;92590.22;2058463;69;20237;-81
2021/09/17 03:33:58;;;;;;;1.42;1.25;;;;;;;15.92;85.68;92592.38;2058239;69;20604;-80
2021/09/17 03:36:26;;;;;;;1.02;0.90;;;;;;;16.34;83.49;92601.09;2058469;69;20134;-80
2021/09/17 03:38:53;;;;;;;1.70;1.20;;;;;;;16.33;83.26;92602.47;2058395;69;20216;-80
2021/09/17 03:41:19;;;;;;;3.10;0.90;;;;;;;16.45;82.73;92603.66;2059241;69;20169;-80
2021/09/17 03:43:45;;;;;;;6.53;1.23;;;;;;;16.24;83.61;92595.75;2058376;69;20350;-81
2021/09/17 03:46:11;;;;;;;2.25;0.98;;;;;;;16.36;82.98;92598.34;2058305;69;20142;-78
2021/09/17 03:48:38;;;;;;;1.90;1.30;;;;;;;16.02;85.38;92602.00;2058451;69;20142;-79
2021/09/17 03:51:04;;;;;;;1.17;0.93;;;;;;;15.89;85.26;92602.91;2058112;69;20208;-79
2021/09/17 03:53:29;;;;;;;1.55;0.60;;;;;;;15.99;85.26;92589.13;2057891;69;20579;-79
2021/09/17 03:55:55;;;;;;;2.08;1.00;;;;;;;15.91;85.36;92599.44;2058595;69;20292;-79
2021/09/17 03:58:21;;;;;;;1.42;1.05;;;;;;;15.91;85.31;92599.44;2058129;69;20690;-80
2021/09/17 04:00:46;;;;;;;1.67;0.90;;;;;;;15.91;85.57;92599.44;2058500;69;20149;-80
2021/09/17 04:03:12;;;;;;;0.98;0.73;;;;;;;15.71;85.67;92594.44;2058403;69;20277;-81
2021/09/17 04:05:37;;;;;;;3.33;0.80;;;;;;;16.06;84.13;92592.19;2058548;69;20501;-79
2021/09/17 04:08:03;;;;;;;2.05;0.90;;;;;;;16.01;84.20;92594.88;2057767;69;20160;-79
2021/09/17 04:10:29;;;;;;;1.50;0.80;;;;;;;15.72;85.92;92595.16;2057478;69;20316;-79
2021/09/17 04:12:54;;;;;;;1.23;0.63;;;;;;;15.80;85.17;92600.41;2061610;69;20173;-80
2021/09/17 04:15:20;;;;;;;0.70;0.70;;;;;;;15.59;85.98;92601.69;2058905;69;20169;-76
2021/09/17 04:17:46;;;;;;;1.63;0.52;;;;;;;16.12;83.86;92590.31;2058364;69;20179;-80
2021/09/17 04:20:12;;;;;;;2.00;0.80;;;;;;;15.87;84.47;92600.00;2058478;69;20146;-76
2021/09/17 04:22:38;;;;;;;2.45;1.00;;;;;;;15.91;84.80;92602.28;2058411;69;20157;-76
2021/09/17 04:25:06;;;;;;;3.88;0.90;;;;;;;15.75;85.38;92596.69;2058236;69;20173;-76
2021/09/17 04:27:32;;;;;;;1.75;0.80;;;;;;;16.09;83.64;92602.28;2058426;69;20153;-76
2021/09/17 04:29:58;;;;;;;2.03;1.00;;;;;;;16.18;82.83;92607.59;2058179;69;20156;-82
2021/09/17 04:32:24;;;;;;;2.05;1.00;;;;;;;16.13;83.52;92606.00;2058522;69;20266;-77
2021/09/17 04:34:49;;;;;;;4.72;1.20;;;;;;;15.91;83.79;92602.28;2058424;69;20995;-77
2021/09/17 04:37:15;;;;;;;1.05;0.85;;;;;;;15.80;85.13;92611.75;2058292;69;20697;-82
2021/09/17 04:39:40;;;;;;;1.75;1.20;;;;;;;15.94;83.57;92609.47;2058027;69;20146;-81
2021/09/17 04:42:06;;;;;;;4.45;0.90;;;;;;;15.87;84.21;92607.78;2058431;69;20134;-81
2021/09/17 04:44:32;;;;;;;0.77;0.63;;;;;;;15.91;84.56;92603.00;2058416;69;20141;-82
2021/09/17 04:46:59;;;;;;;2.17;0.70;;;;;;;15.89;84.60;92600.06;2058330;69;20225;-81
2021/09/17 04:49:24;;;;;;;1.35;0.50;;;;;;;16.18;82.92;92606.88;2058417;69;20493;-76
2021/09/17 04:51:50;;;;;;;2.08;0.60;;;;;;;15.94;83.58;92601.72;2058482;69;20154;-78
2021/09/17 04:54:17;;;;;;;1.00;0.50;;;;;;;16.31;82.18;92600.28;2058605;69;20149;-77
2021/09/17 04:56:43;;;;;;;2.55;0.70;;;;;;;16.09;82.17;92594.47;2058213;69;20204;-77
2021/09/17 04:59:10;;;;;;;1.67;1.10;;;;;;;15.46;85.54;92606.13;2057988;69;20154;-77
2021/09/17 05:01:35;;;;;;;1.65;0.80;;;;;;;16.12;82.97;92606.63;2058504;69;20247;-76
2021/09/17 05:04:01;;;;;;;4.03;1.15;;;;;;;15.48;84.79;92606.19;2058609;69;20149;-78
2021/09/17 05:06:30;;;;;;;4.22;0.98;;;;;;;15.78;84.62;92608.84;2058470;69;20157;-81
2021/09/17 05:08:57;;;;;;;5.13;1.00;;;;;;;15.59;86.07;92608.09;2058327;69;20154;-81
2021/09/17 05:11:22;;;;;;;1.33;0.90;;;;;;;15.92;83.56;92607.31;2058368;69;20490;-80
2021/09/17 05:13:48;;;;;;;1.42;0.85;;;;;;;15.86;83.87;92612.75;2058598;69;20180;-81
2021/09/17 05:16:14;;;;;;;3.40;1.00;;;;;;;15.54;85.08;92614.25;2058533;69;20172;-83
2021/09/17 05:18:39;;;;;;;1.45;0.85;;;;;;;15.90;84.31;92618.59;2058441;69;20592;-81
2021/09/17 05:21:05;;;;;;;1.77;0.80;;;;;;;16.16;82.18;92618.16;2058347;69;20176;-76
2021/09/17 05:23:30;;;;;;;1.73;0.88;;;;;;;16.32;81.12;92626.59;2058431;69;20196;-76
2021/09/17 05:25:56;;;;;;;3.25;1.02;;;;;;;16.27;80.95;92629.25;2057950;69;20208;-77
2021/09/17 05:28:22;;;;;;;3.13;0.80;;;;;;;16.37;80.51;92628.91;2058386;69;20600;-77
2021/09/17 05:30:47;;;;;;;1.35;0.80;;;;;;;16.42;79.51;92633.38;2058350;69;20168;-77
2021/09/17 05:33:13;;;;;;;2.08;0.93;;;;;;;16.44;80.13;92635.56;2058573;69;20150;-77
2021/09/17 05:35:38;;;;;;;1.50;0.80;;;;;;;16.41;79.59;92637.59;2058478;69;20212;-82
2021/09/17 05:38:04;;;;;;;1.05;0.90;;;;;;;16.09;80.81;92644.88;2058225;69;20144;-80
2021/09/17 05:40:29;;;;;;;1.88;1.20;;;;;;;15.71;83.30;92639.06;2057275;69;20504;-82
2021/09/17 05:42:55;;;;;;;1.17;1.05;;;;;;;15.60;83.89;92646.44;2058497;69;20153;-82
2021/09/17 05:45:20;;;;;;;2.47;0.90;;;;;;;15.92;82.10;92641.38;2058536;69;20150;-82
2021/09/17 05:47:46;;;;;;;1.05;0.80;;;;;;;15.84;82.19;92646.72;2058411;69;20150;-81
2021/09/17 05:50:12;;;;;;;2.88;1.08;;;;;;;15.99;81.76;92650.88;2058282;69;20146;-77
2021/09/17 05:52:39;;;;;;;1.33;1.10;;;;;;;15.74;83.04;92647.03;2057672;69;20226;-77
2021/09/17 05:55:05;;;;;;;1.65;1.20;;;;;;;15.43;84.43;92647.84;2058100;69;20224;-77
2021/09/17 05:57:31;;;;;;;1.17;1.08;;;;;;;15.67;84.22;92658.81;2058413;69;20617;-76
2021/09/17 05:59:59;;;;;;;1.80;1.20;;;;;;;15.41;84.61;92649.88;2058523;69;20156;-78
2021/09/17 06:02:25;;;;;;;1.75;1.27;;;;;;;15.81;83.29;92653.69;2058308;69;20165;-77
2021/09/17 06:04:51;;;;;;;3.47;1.55;;;;;;;15.72;82.53;92660.44;2058209;69;20616;-81
2021/09/17 06:07:16;;;;;;;1.60;1.38;;;;;;;16.03;81.88;92651.00;2057941;69;20604;-81
2021/09/17 06:09:42;;;;;;;1.35;1.15;;;;;;;16.21;80.72;92648.88;2058161;69;20250;-80
2021/09/17 06:12:08;;;;;;;0.98;0.88;;;;;;;16.15;81.18;92662.13;2059964;69;20227;-83
2021/09/17 06:14:33;;;;;;;5.45;2.45;;;;;;;15.61;83.52;92658.50;2061762;69;20142;-81
2021/09/17 06:17:00;;;;;;;2.00;1.70;;;;;;;15.68;84.43;92654.56;2059065;69;20183;-82
2021/09/17 06:19:25;;;;;;;3.88;2.70;;;;;;;15.94;83.38;92652.06;2058167;69;20661;-79
2021/09/17 06:21:51;;;;;;;3.17;1.80;;;;;;;15.81;83.75;92656.53;2058222;69;20145;-79
2021/09/17 06:24:17;;;;;;;1.95;1.52;;;;;;;15.57;84.31;92655.50;2058298;69;20149;-77
2021/09/17 06:26:43;;;;;;;1.73;1.25;;;;;;;15.58;84.26;92660.53;2058310;69;20138;-78
2021/09/17 06:29:09;;;;;;;2.85;1.77;;;;;;;15.67;84.06;92658.81;2058248;69;20612;-78
2021/09/17 06:31:36;;;;;;;2.20;1.75;;;;;;;15.72;83.62;92658.31;2058358;69;20280;-80
2021/09/17 06:34:04;;;;;;;2.35;1.67;;;;;;;15.72;83.54;92664.00;2058311;69;20216;-82
2021/09/17 06:36:29;;;;;;;6.32;1.60;;;;;;;16.19;81.04;92656.63;2059179;69;20158;-82
2021/09/17 06:38:55;;;;;;;1.80;1.60;;;;;;;15.82;82.31;92660.09;2058322;69;20154;-83
2021/09/17 06:41:21;;;;;;;3.42;1.73;;;;;;;15.67;83.89;92664.47;2058779;69;20276;-83
2021/09/17 06:43:47;;;;;;;2.45;1.58;;;;;;;15.96;81.78;92655.72;2059419;69;20145;-82
2021/09/17 06:46:13;;;;;;;4.10;1.70;;;;;;;15.52;83.81;92661.00;2058279;69;20144;-83
2021/09/17 06:48:39;;;;;;;3.30;1.75;;;;;;;15.77;83.20;92655.66;2058085;69;20226;-77
2021/09/17 06:51:04;;;;;;;2.10;1.60;;;;;;;15.58;84.06;92660.53;2057994;69;20152;-79
2021/09/17 06:53:30;;;;;;;3.10;2.25;;;;;;;15.79;82.92;92656.44;2058301;69;20201;-78
2021/09/17 06:55:56;;;;;;;2.28;2.08;;;;;;;15.75;83.94;92654.16;2058300;69;20620;-80
2021/09/17 06:58:21;;;;;;;4.40;2.22;;;;;;;16.32;79.78;92649.31;2058198;69;20154;-78
2021/09/17 07:00:47;;;;;;;4.05;2.35;;;;;;;16.40;79.63;92653.19;2058368;69;20145;-85
2021/09/17 07:03:13;;;;;;;4.47;2.38;;;;;;;16.45;78.91;92651.97;2057490;69;20153;-85
2021/09/17 07:05:39;;;;;;;3.75;2.50;;;;;;;15.93;81.94;92653.44;2057274;69;20166;-84
2021/09/17 07:08:07;;;;;;;3.13;2.60;;;;;;;15.73;83.13;92650.53;2058022;69;20181;-84
2021/09/17 07:10:35;;;;;;;4.50;2.60;;;;;;;15.99;82.81;92648.03;2057590;69;20237;-83
2021/09/17 07:13:01;;;;;;;3.92;2.40;;;;;;;16.22;80.35;92652.50;2061037;69;20173;-82
2021/09/17 07:15:26;;;;;;;3.90;2.55;;;;;;;16.42;78.76;92644.00;2061635;69;20239;-84
2021/09/17 07:17:52;;;;;;;4.38;2.90;;;;;;;16.23;79.59;92651.09;2059040;69;20220;-84
2021/09/17 07:20:18;;;;;;;4.40;2.80;;;;;;;16.12;80.17;92652.06;2058028;69;20161;-77
2021/09/17 07:22:46;;;;;;;3.28;2.63;;;;;;;16.47;78.40;92654.88;2057999;69;20138;-79
2021/09/17 07:25:12;;;;;;;3.78;2.80;;;;;;;16.63;77.95;92651.19;2058105;69;20146;-78
2021/09/17 07:27:38;;;;;;;3.13;2.80;;;;;;;16.67;78.06;92651.31;2057644;69;20515;-78
2021/09/17 07:30:05;;;;;;;3.17;2.65;;;;;;;16.83;77.68;92659.78;2058010;69;20269;-78
2021/09/17 07:32:31;;;;;;;3.53;2.92;;;;;;;16.43;78.73;92663.22;2058125;69;20173;-83
2021/09/17 07:34:57;;;;;;;4.75;2.90;;;;;;;16.76;77.21;92661.66;2058142;69;20251;-85
2021/09/17 07:37:23;;;;;;;4.38;2.70;;;;;;;17.03;76.74;92664.06;2057902;69;20152;-84
2021/09/17 07:39:49;;;;;;;4.18;2.95;;;;;;;17.02;76.76;92668.31;2053871;69;20146;-83
2021/09/17 07:42:14;;;;;;;5.85;3.03;;;;;;;17.13;76.44;92663.72;2056823;69;20146;-82
2021/09/17 07:44:40;;;;;;;4.55;2.97;;;;;;;17.40;76.52;92665.38;2058150;69;20168;-83
2021/09/17 07:47:06;;;;;;;3.47;2.75;;;;;;;17.53;74.84;92661.56;2059440;69;20600;-85
2021/09/17 07:49:32;;;;;;;2.90;2.50;;;;;;;17.59;74.03;92658.19;2056698;69;20153;-79
2021/09/17 07:51:58;;;;;;;3.20;2.30;;;;;;;17.76;75.07;92659.50;2057592;69;20157;-78
2021/09/17 07:54:24;;;;;;;2.78;2.53;;;;;;;17.78;74.48;92666.00;2056484;69;20605;-80
2021/09/17 07:56:50;;;;;;;2.88;2.50;;;;;;;17.92;73.55;92660.06;2056821;69;20291;-79
2021/09/17 07:59:16;;;;;;;2.35;2.08;;;;;;;18.00;73.70;92668.84;2057911;69;20156;-79
2021/09/17 08:01:42;;;;;;;3.05;2.63;;;;;;;17.84;73.94;92668.34;2058011;69;20161;-85
2021/09/17 08:04:07;;;;;;;4.05;2.92;;;;;;;17.81;74.04;92672.50;2057809;69;20150;-83
2021/09/17 08:06:33;;;;;;;5.13;2.60;;;;;;;17.47;74.61;92678.44;2056940;69;20241;-84
2021/09/17 08:08:59;;;;;;;4.07;2.58;;;;;;;17.64;74.64;92667.59;2057723;69;20606;-85
2021/09/17 08:11:24;;;;;;;3.78;2.67;;;;;;;17.73;73.43;92672.97;2058044;69;20589;-84
2021/09/17 08:13:50;;;;;;;3.78;2.80;;;;;;;18.20;74.13;92663.09;2057907;69;20158;-84
2021/09/17 08:16:15;;;;;;;4.10;2.40;;;;;;;18.69;76.06;92669.59;2058244;69;20175;-84
2021/09/17 08:18:41;;;;;;;4.95;2.75;;;;;;;18.74;73.99;92669.06;2058542;69;20262;-80
2021/09/17 08:21:07;;;;;;;5.35;2.72;;;;;;;19.45;74.01;92672.50;2058494;69;20150;-78
2021/09/17 08:23:32;;;;;;;3.00;2.50;;;;;;;19.97;72.35;92683.88;2058351;69;20156;-80
2021/09/17 08:25:58;;;;;;;4.70;2.30;;;;;;;20.50;72.13;92680.25;2058170;69;20229;-79
2021/09/17 08:28:24;;;;;;;2.55;2.05;;;;;;;21.22;72.67;92678.97;2058470;69;20180;-80
2021/09/17 08:30:51;;;;;;;2.38;2.15;;;;;;;21.09;64.95;92689.44;2058472;69;20149;-85
2021/09/17 08:33:20;;;;;;;2.25;2.00;;;;;;;21.38;64.33;92681.44;2058344;69;20153;-85
2021/09/17 08:35:45;;;;;;;4.25;1.85;;;;;;;21.29;64.10;92675.53;2058292;69;20540;-85
2021/09/17 08:38:11;;;;;;;2.78;1.60;;;;;;;21.50;62.99;92670.97;2057878;69;20146;-85
2021/09/17 08:40:37;;;;;;;2.72;1.45;;;;;;;21.72;62.14;92678.56;2058366;69;20146;-82
2021/09/17 08:43:03;;;;;;;2.78;1.65;;;;;;;21.33;59.10;92669.19;2058162;69;20152;-84
2021/09/17 08:45:31;;;;;;;2.38;1.73;;;;;;;21.52;61.27;92676.72;2058288;69;20150;-81
2021/09/17 08:47:58;;;;;;;2.47;2.10;;;;;;;22.17;59.30;92674.38;2058374;69;20213;-79
2021/09/17 08:50:24;;;;;;;1.70;1.60;;;;;;;22.59;60.48;92673.63;2058535;69;20157;-75
2021/09/17 08:52:52;;;;;;;2.20;1.58;;;;;;;21.75;60.57;92666.44;2058221;69;20153;-77
2021/09/17 08:55:17;;;;;;;2.38;1.60;;;;;;;22.61;57.10;92672.94;2059473;69;20134;-83
2021/09/17 08:57:47;;;;;;;3.50;1.50;;;;;;;23.34;57.53;92671.84;2058613;69;20189;-78
2021/09/17 09:00:33;;;;;;;1.20;1.10;;;;;;;23.18;54.86;92668.75;2058283;69;20168;-83
2021/09/17 09:03:00;;;;;;;1.23;1.10;;;;;;;23.80;55.06;92665.22;2055223;69;20142;-83
2021/09/17 09:05:31;;;;;;;1.00;0.90;;;;;;;23.96;54.12;92667.56;2057964;69;20169;-81
2021/09/17 09:07:58;;;;;;;0.90;0.82;;;;;;;24.20;52.53;92666.38;2058168;69;20156;-83
2021/09/17 09:10:24;;;;;;;1.30;0.70;;;;;;;24.47;52.34;92662.31;2058292;69;20164;-79
2021/09/17 09:12:55;;;;;;;1.00;0.90;;;;;;;24.87;52.13;92664.03;2057921;69;20527;-79
2021/09/17 09:15:26;;;;;;;0.70;0.70;;;;;;;25.19;50.32;92659.94;2058489;69;20156;-79
2021/09/17 09:18:13;;;;;;;1.85;0.88;;;;;;;25.02;49.49;92659.84;2057943;69;20165;-81
2021/09/17 09:20:41;;;;;;;0.70;0.70;;;;;;;25.39;48.07;92662.22;2058299;69;20717;-81
2021/09/17 09:23:26;;;;;;;0.80;0.70;;;;;;;25.37;47.60;92653.56;2057801;69;20149;-80
2021/09/17 09:26:08;;;;;;;0.65;0.55;;;;;;;25.92;46.00;92659.56;2058259;69;20244;-81
2021/09/17 09:28:35;;;;;;;0.70;0.70;;;;;;;25.89;46.69;92652.34;2058483;69;20150;-82
2021/09/17 09:31:15;;;;;;;2.25;0.70;;;;;;;26.16;47.87;92645.22;2058468;69;20525;-81
2021/09/17 09:33:44;;;;;;;0.68;0.68;;;;;;;25.99;46.06;92652.38;2058460;69;20153;-82
2021/09/17 09:36:12;;;;;;;0.70;0.70;;;;;;;26.30;45.82;92635.84;2058590;69;20256;-83
2021/09/17 09:38:39;;;;;;;0.55;0.55;;;;;;;26.31;46.18;92643.06;2057925;69;20145;-82
2021/09/17 09:41:07;;;;;;;0.65;0.60;;;;;;;27.16;44.83;92630.06;2058302;69;20149;-84
2021/09/17 09:43:36;;;;;;;0.70;0.65;;;;;;;27.27;44.65;92640.88;2058492;69;20165;-82
2021/09/17 09:46:20;;;;;;;1.02;0.65;;;;;;;27.62;44.39;92638.56;2058399;69;20207;-75
2021/09/17 09:49:06;;;;;;;0.98;0.77;;;;;;;27.87;42.82;92638.50;2058146;69;20606;-81
2021/09/17 09:51:34;;;;;;;1.40;0.73;;;;;;;28.05;41.29;92637.69;2058374;69;20137;-83
2021/09/17 09:54:03;;;;;;;2.17;0.80;;;;;;;28.59;40.54;92630.09;2058287;69;20175;-80
2021/09/17 09:56:29;;;;;;;2.40;0.80;;;;;;;28.77;40.52;92629.97;2058501;69;20169;-78
2021/09/17 09:58:55;;;;;;;0.75;0.68;;;;;;;28.38;41.08;92632.44;2055817;69;20161;-83
2021/09/17 10:01:23;;;;;;;0.80;0.70;;;;;;;28.52;40.58;92626.53;2056873;69;20177;-77
2021/09/17 10:03:53;;;;;;;0.70;0.70;;;;;;;29.34;38.60;92622.94;2056528;69;20213;-82
2021/09/17 10:06:20;;;;;;;1.45;0.60;;;;;;;28.65;39.07;92623.56;2057318;69;20181;-84
2021/09/17 10:08:46;;;;;;;0.70;0.70;;;;;;;27.69;39.06;92624.13;2056989;69;20161;-82
2021/09/17 10:11:12;;;;;;;1.05;0.50;;;;;;;27.58;40.54;92627.06;2057509;69;20173;-83
2021/09/17 10:13:38;;;;;;;1.02;0.70;;;;;;;27.15;40.21;92617.78;2054266;69;20173;-83
2021/09/17 10:16:05;;;;;;;0.70;0.70;;;;;;;27.94;40.39;92613.16;2054738;69;20161;-81
2021/09/17 10:18:31;;;;;;;1.17;0.70;;;;;;;28.77;35.99;92617.66;2057186;69;20185;-82
2021/09/17 10:20:57;;;;;;;0.88;0.70;;;;;;;28.35;38.70;92607.84;2057971;69;20244;-82
2021/09/17 10:23:33;;;;;;;1.90;0.68;;;;;;;29.43;37.08;92615.59;2058125;69;20613;-82
2021/09/17 10:26:10;;;;;;;0.77;0.70;;;;;;;27.58;38.04;92601.03;2058671;69;20134;-82
2021/09/17 10:29:04;;;;;;;1.15;0.75;;;;;;;29.99;37.20;92612.75;2058505;69;20165;-83
2021/09/17 10:31:41;;;;;;;0.98;0.70;;;;;;;30.22;36.29;92599.38;2057604;69;20181;-82
2021/09/17 10:34:35;;;;;;;0.95;0.70;;;;;;;29.72;34.49;92603.66;2057739;69;20142;-80
2021/09/17 10:37:03;;;;;;;0.70;0.70;;;;;;;30.71;35.55;92600.81;2061084;69;20145;-81
2021/09/17 10:39:28;;;;;;;0.95;0.73;;;;;;;29.36;34.37;92594.63;2058315;69;20505;-78
2021/09/17 10:42:06;;;;;;;0.77;0.70;;;;;;;30.19;33.32;92595.06;2057394;69;20236;-80
2021/09/17 10:44:32;;;;;;;0.95;0.80;;;;;;;29.69;36.17;92588.47;2057896;69;20167;-80
2021/09/17 10:46:57;;;;;;;0.90;0.68;;;;;;;30.17;33.64;92586.38;2057927;69;20523;-76
2021/09/17 10:49:23;;;;;;;1.05;0.68;;;;;;;30.78;33.45;92587.63;2057313;69;20165;-76
2021/09/17 10:51:49;;;;;;;0.50;0.50;;;;;;;31.34;34.04;92585.94;2058146;69;20239;-76
2021/09/17 10:54:19;;;;;;;1.00;0.80;;;;;;;30.81;32.94;92586.84;2057767;69;20191;-83
2021/09/17 10:56:51;;;;;;;1.95;0.60;;;;;;;33.20;31.14;92578.16;2059552;69;20192;-82
2021/09/17 10:59:22;;;;;;;1.30;0.50;;;;;;;33.07;29.34;92581.38;2057645;69;20169;-83
2021/09/17 11:01:48;;;;;;;0.45;0.40;;;;;;;33.48;28.63;92579.63;2058055;69;20133;-81
2021/09/17 11:04:22;;;;;;;0.55;0.50;;;;;;;33.93;27.43;92590.75;2057987;69;20597;-83
2021/09/17 11:06:50;;;;;;;1.38;0.60;;;;;;;35.63;27.66;92583.88;2057520;69;20181;-79
2021/09/17 11:09:39;;;;;;;1.00;0.50;;;;;;;34.92;26.41;92585.56;2057965;69;20160;-79
2021/09/17 11:12:24;;;;;;;0.40;0.40;;;;;;;38.60;24.34;92587.84;2058313;69;20145;-79
2021/09/17 11:15:08;;;;;;;0.93;0.60;;;;;;;35.61;25.58;92574.47;2058276;69;20148;-78
2021/09/17 11:17:37;;;;;;;1.23;0.65;;;;;;;37.67;24.87;92574.44;2057750;69;20138;-86
2021/09/17 11:20:06;;;;;;;0.70;0.50;;;;;;;37.33;24.23;92580.25;2058291;69;20157;-84
2021/09/17 11:22:57;;;;;;;1.15;0.50;;;;;;;36.04;24.23;92567.75;2058172;69;20154;-88
2021/09/17 11:25:29;;;;;;;0.50;0.50;;;;;;;38.14;23.65;92567.91;2058365;69;20156;-80
2021/09/17 11:27:56;;;;;;;1.48;0.50;;;;;;;37.03;24.80;92559.50;2058180;69;20241;-84
2021/09/17 11:30:26;;;;;;;0.57;0.57;;;;;;;38.40;23.90;92562.34;2058186;69;20145;-81
2021/09/17 11:32:54;;;;;;;0.47;0.47;;;;;;;40.28;21.56;92573.56;2058222;69;20229;-80
2021/09/17 11:35:20;;;;;;;0.50;0.50;;;;;;;38.04;23.21;92562.50;2058226;69;20497;-80